createdAt,value
2018-07-06T00:01:12.608Z,16.40
2018-07-06T00:03:53.061Z,16.40
2018-07-06T00:06:33.173Z,16.30
2018-07-06T00:09:13.123Z,16.20
2018-07-06T00:11:53.659Z,16.10
2018-07-06T00:14:34.308Z,16.00
2018-07-06T00:17:14.479Z,16.10
2018-07-06T00:19:54.662Z,16.10
2018-07-06T00:22:34.721Z,16.00
2018-07-06T00:25:15.169Z,15.90
2018-07-06T00:27:55.816Z,15.80
2018-07-06T00:30:35.940Z,15.80
2018-07-06T00:33:16.019Z,15.70
2018-07-06T00:35:56.007Z,15.70
2018-07-06T00:38:37.139Z,15.60
2018-07-06T00:41:17.235Z,15.60
2018-07-06T00:43:57.348Z,15.60
2018-07-06T00:46:37.420Z,15.60
2018-07-06T00:49:17.483Z,15.50
2018-07-06T00:51:57.631Z,15.50
2018-07-06T00:54:37.585Z,15.50
2018-07-06T00:57:18.044Z,15.50
2018-07-06T00:59:58.024Z,15.50
2018-07-06T01:02:38.240Z,15.40
2018-07-06T01:05:18.408Z,15.40
2018-07-06T01:07:58.354Z,15.50
2018-07-06T01:10:38.408Z,15.40
2018-07-06T01:13:18.476Z,15.50
2018-07-06T01:15:58.627Z,15.50
2018-07-06T01:18:38.783Z,15.50
2018-07-06T01:21:18.968Z,15.50
2018-07-06T01:23:59.184Z,15.60
2018-07-06T01:26:39.162Z,15.50
2018-07-06T01:29:19.287Z,15.50
2018-07-06T01:31:59.405Z,15.50
2018-07-06T01:34:39.519Z,15.50
2018-07-06T01:37:19.560Z,15.60
2018-07-06T01:40:00.277Z,15.50
2018-07-06T01:42:40.496Z,15.50
2018-07-06T01:45:20.756Z,15.40
2018-07-06T01:48:00.967Z,15.30
2018-07-06T01:50:41.062Z,15.30
2018-07-06T01:53:20.984Z,15.20
2018-07-06T01:56:01.069Z,15.20
2018-07-06T01:58:41.208Z,15.10
2018-07-06T02:01:21.275Z,15.10
2018-07-06T02:04:01.533Z,15.10
2018-07-06T02:06:41.664Z,15.10
2018-07-06T02:09:21.873Z,15.20
2018-07-06T02:12:02.023Z,15.10
2018-07-06T02:14:42.166Z,15.10
2018-07-06T02:17:22.778Z,15.00
2018-07-06T02:20:02.828Z,15.00
2018-07-06T02:22:42.936Z,15.00
2018-07-06T02:25:23.876Z,15.00
2018-07-06T02:28:03.894Z,15.00
2018-07-06T02:30:44.039Z,15.00
2018-07-06T02:33:24.195Z,15.00
2018-07-06T02:36:04.307Z,14.90
2018-07-06T02:38:44.493Z,14.90
2018-07-06T02:41:24.570Z,15.00
2018-07-06T02:44:04.737Z,14.90
2018-07-06T02:46:44.947Z,14.90
2018-07-06T02:49:25.046Z,15.00
2018-07-06T02:52:05.264Z,15.00
2018-07-06T02:54:46.058Z,15.10
2018-07-06T02:57:26.713Z,15.10
2018-07-06T03:00:06.795Z,15.10
2018-07-06T03:02:46.902Z,15.10
2018-07-06T03:05:27.269Z,15.10
2018-07-06T03:08:07.312Z,15.10
2018-07-06T03:10:47.502Z,15.10
2018-07-06T03:13:27.683Z,15.00
2018-07-06T03:16:07.817Z,15.00
2018-07-06T03:18:47.868Z,15.00
2018-07-06T03:21:27.796Z,15.00
2018-07-06T03:24:07.795Z,15.10
2018-07-06T03:26:47.935Z,15.10
2018-07-06T03:29:28.075Z,15.10
2018-07-06T03:32:08.140Z,15.20
2018-07-06T03:34:48.222Z,15.30
2018-07-06T03:37:28.397Z,15.30
2018-07-06T03:40:09.015Z,15.30
2018-07-06T03:42:49.084Z,15.30
2018-07-06T03:45:29.222Z,15.40
2018-07-06T03:48:09.407Z,15.40
2018-07-06T03:50:49.417Z,15.40
2018-07-06T03:53:30.391Z,15.50
2018-07-06T03:56:10.503Z,15.50
2018-07-06T03:58:50.912Z,15.50
2018-07-06T04:01:30.844Z,15.50
2018-07-06T04:04:10.916Z,15.60
2018-07-06T04:06:51.050Z,15.60
2018-07-06T04:09:31.135Z,15.60
2018-07-06T04:12:11.689Z,15.50
2018-07-06T04:14:51.766Z,15.60
2018-07-06T04:17:31.940Z,15.50
2018-07-06T04:20:12.147Z,15.50
2018-07-06T04:22:52.316Z,15.50
2018-07-06T04:25:32.515Z,15.40
2018-07-06T04:28:12.562Z,15.40
2018-07-06T04:30:52.935Z,15.40
2018-07-06T04:33:32.953Z,15.30
2018-07-06T04:36:13.133Z,15.30
2018-07-06T04:38:53.247Z,15.30
2018-07-06T04:41:33.429Z,15.20
2018-07-06T04:44:13.626Z,15.10
2018-07-06T04:46:53.726Z,14.90
2018-07-06T04:49:33.999Z,14.90
2018-07-06T04:52:14.049Z,15.00
2018-07-06T04:54:54.047Z,15.20
2018-07-06T04:57:34.133Z,15.10
2018-07-06T05:00:14.164Z,15.10
2018-07-06T05:02:54.263Z,15.00
2018-07-06T05:05:34.427Z,15.00
2018-07-06T05:08:14.575Z,15.10
2018-07-06T05:10:54.722Z,15.10
2018-07-06T05:13:34.869Z,15.10
2018-07-06T05:16:15.516Z,15.30
2018-07-06T05:18:55.610Z,15.50
2018-07-06T05:21:35.699Z,15.60
2018-07-06T05:24:16.096Z,15.70
2018-07-06T05:26:56.387Z,15.70
2018-07-06T05:29:36.741Z,15.70
2018-07-06T05:32:17.187Z,15.70
2018-07-06T05:34:57.301Z,15.70
2018-07-06T05:37:37.453Z,15.70
2018-07-06T05:40:17.594Z,15.70
2018-07-06T05:42:57.618Z,15.80
2018-07-06T05:45:37.787Z,15.60
2018-07-06T05:48:17.839Z,15.70
2018-07-06T05:50:58.070Z,15.80
2018-07-06T05:53:38.703Z,15.90
2018-07-06T05:56:18.918Z,16.00
2018-07-06T05:58:59.782Z,16.00
2018-07-06T06:01:39.998Z,15.80
2018-07-06T06:04:20.725Z,15.80
2018-07-06T06:07:00.940Z,16.00
2018-07-06T06:09:35.971Z,15.80
2018-07-06T06:12:04.454Z,16.00
2018-07-06T06:14:33.131Z,16.10
2018-07-06T06:17:01.678Z,16.20
2018-07-06T06:19:30.167Z,16.40
2018-07-06T06:22:00.015Z,16.40
2018-07-06T06:24:28.599Z,16.20
2018-07-06T06:26:57.166Z,16.00
2018-07-06T06:29:25.653Z,16.10
2018-07-06T06:31:54.138Z,16.20
2018-07-06T06:34:23.048Z,16.30
2018-07-06T06:36:51.649Z,16.10
2018-07-06T06:39:20.775Z,16.20
2018-07-06T06:41:49.504Z,16.30
2018-07-06T06:44:18.655Z,16.50
2018-07-06T06:46:47.335Z,16.50
2018-07-06T06:49:15.831Z,16.40
2018-07-06T06:51:45.799Z,16.30
2018-07-06T06:54:15.143Z,16.20
2018-07-06T06:56:43.975Z,16.20
2018-07-06T06:59:13.424Z,16.20
2018-07-06T07:01:42.561Z,16.20
2018-07-06T07:04:11.961Z,16.20
2018-07-06T07:06:40.462Z,16.40
2018-07-06T07:09:09.028Z,16.50
2018-07-06T07:11:37.505Z,16.70
2018-07-06T07:14:06.016Z,16.80
2018-07-06T07:16:35.024Z,16.70
2018-07-06T07:19:03.790Z,16.60
2018-07-06T07:21:32.340Z,16.80
2018-07-06T07:24:00.943Z,16.90
2018-07-06T07:26:30.289Z,16.80
2018-07-06T07:28:58.911Z,16.80
2018-07-06T07:31:27.988Z,16.70
2018-07-06T07:33:56.732Z,16.70
2018-07-06T07:36:25.694Z,16.60
2018-07-06T07:38:54.955Z,16.50
2018-07-06T07:41:23.393Z,16.30
2018-07-06T07:43:51.823Z,16.40
2018-07-06T07:46:20.309Z,16.50
2018-07-06T07:48:48.871Z,16.60
2018-07-06T07:51:55.822Z,16.60
2018-07-06T07:54:29.669Z,16.50
2018-07-06T07:56:59.161Z,16.60
2018-07-06T08:01:36.819Z,16.70
2018-07-06T08:04:05.536Z,16.80
2018-07-06T08:06:33.969Z,16.90
2018-07-06T08:09:02.824Z,16.70
2018-07-06T08:11:35.445Z,16.60
2018-07-06T08:14:04.910Z,16.50
2018-07-06T08:16:28.820Z,16.60
2018-07-06T08:18:58.094Z,16.70
2018-07-06T08:21:26.477Z,16.70
2018-07-06T08:23:55.550Z,16.90
2018-07-06T08:26:23.880Z,17.00
2018-07-06T08:28:52.377Z,17.10
2018-07-06T08:31:20.770Z,17.30
2018-07-06T08:33:55.229Z,17.40
2018-07-06T08:37:35.784Z,17.60
2018-07-06T08:40:04.244Z,17.70
2018-07-06T08:42:33.652Z,18.00
2018-07-06T08:45:02.735Z,18.00
2018-07-06T08:47:31.120Z,17.80
2018-07-06T08:50:00.269Z,17.60
2018-07-06T08:52:28.793Z,17.60
2018-07-06T08:54:57.201Z,17.60
2018-07-06T08:57:26.924Z,17.70
2018-07-06T08:59:55.502Z,17.80
2018-07-06T09:02:24.301Z,18.00
2018-07-06T09:04:53.727Z,18.20
2018-07-06T09:07:22.162Z,17.90
2018-07-06T09:09:50.920Z,17.90
2018-07-06T09:12:19.853Z,18.10
2018-07-06T09:14:48.280Z,18.10
2018-07-06T09:17:17.665Z,18.30
2018-07-06T09:19:46.794Z,18.10
2018-07-06T09:22:15.720Z,18.10
2018-07-06T09:24:44.838Z,18.30
2018-07-06T09:27:13.513Z,18.50
2018-07-06T09:29:42.518Z,18.40
2018-07-06T09:32:10.875Z,18.50
2018-07-06T09:34:39.661Z,18.30
2018-07-06T09:37:08.250Z,18.20
2018-07-06T09:39:37.259Z,18.40
2018-07-06T09:42:05.696Z,18.50
2018-07-06T09:44:34.179Z,18.70
2018-07-06T09:47:03.187Z,19.00
2018-07-06T09:49:31.598Z,19.30
2018-07-06T09:52:00.075Z,19.40
2018-07-06T09:54:29.437Z,19.40
2018-07-06T09:56:57.857Z,19.50
2018-07-06T09:59:26.289Z,19.50
2018-07-06T10:01:55.015Z,19.60
2018-07-06T10:04:23.449Z,19.70
2018-07-06T10:06:51.985Z,20.00
2018-07-06T10:09:20.404Z,19.90
2018-07-06T10:11:49.277Z,20.00
2018-07-06T10:14:17.728Z,19.80
2018-07-06T10:16:46.289Z,19.50
2018-07-06T10:19:15.514Z,19.70
2018-07-06T10:21:43.957Z,20.30
2018-07-06T10:24:12.918Z,20.30
2018-07-06T10:26:41.273Z,20.50
2018-07-06T10:29:16.236Z,20.20
2018-07-06T10:32:25.969Z,20.40
2018-07-06T10:34:54.673Z,20.60
2018-07-06T10:37:23.432Z,20.80
2018-07-06T10:39:52.337Z,20.60
2018-07-06T10:42:20.714Z,20.70
2018-07-06T10:44:49.127Z,21.00
2018-07-06T10:47:17.611Z,21.30
2018-07-06T10:49:46.730Z,21.10
2018-07-06T10:52:15.921Z,21.00
2018-07-06T10:54:45.031Z,21.20
2018-07-06T10:57:13.460Z,21.00
2018-07-06T10:59:41.876Z,21.40
2018-07-06T11:02:10.248Z,21.90
2018-07-06T11:04:38.849Z,22.00
2018-07-06T11:07:07.261Z,21.80
2018-07-06T11:09:35.677Z,22.00
2018-07-06T11:12:04.162Z,22.20
2018-07-06T11:14:32.552Z,22.20
2018-07-06T11:17:00.918Z,21.90
2018-07-06T11:19:29.292Z,22.10
2018-07-06T11:21:57.675Z,22.10
2018-07-06T11:24:26.090Z,22.00
2018-07-06T11:26:54.538Z,21.60
2018-07-06T11:29:23.006Z,21.60
2018-07-06T11:31:52.040Z,21.90
2018-07-06T11:34:21.011Z,22.00
2018-07-06T11:36:49.484Z,22.00
2018-07-06T11:39:17.903Z,22.30
2018-07-06T11:41:46.312Z,22.60
2018-07-06T11:44:14.768Z,22.60
2018-07-06T11:46:43.262Z,22.70
2018-07-06T11:49:11.857Z,22.60
2018-07-06T11:51:40.990Z,22.50
2018-07-06T11:54:09.488Z,22.50
2018-07-06T11:56:37.952Z,22.50
2018-07-06T11:59:06.443Z,22.60
2018-07-06T12:01:35.048Z,22.90
2018-07-06T12:04:03.521Z,23.10
2018-07-06T12:06:32.234Z,23.60
2018-07-06T12:09:00.653Z,23.60
2018-07-06T12:11:29.516Z,23.50
2018-07-06T12:13:57.978Z,23.60
2018-07-06T12:16:26.464Z,24.00
2018-07-06T12:18:55.004Z,24.10
2018-07-06T12:21:24.410Z,24.10
2018-07-06T12:23:52.884Z,24.30
2018-07-06T12:26:21.309Z,24.30
2018-07-06T12:28:50.435Z,24.30
2018-07-06T12:31:18.900Z,24.10
2018-07-06T12:33:47.383Z,23.90
2018-07-06T12:36:16.447Z,23.50
2018-07-06T12:38:45.630Z,23.00
2018-07-06T12:41:14.261Z,23.20
2018-07-06T12:43:43.251Z,23.80
2018-07-06T12:46:12.376Z,24.00
2018-07-06T12:48:40.843Z,23.90
2018-07-06T12:51:09.327Z,23.30
2018-07-06T12:53:37.754Z,23.20
2018-07-06T12:56:06.334Z,23.60
2018-07-06T12:58:34.861Z,24.00
2018-07-06T13:01:04.634Z,23.90
2018-07-06T13:03:33.253Z,23.40
2018-07-06T13:06:01.802Z,23.60
2018-07-06T13:08:31.508Z,23.60
2018-07-06T13:10:59.988Z,23.60
2018-07-06T13:13:28.451Z,23.80
2018-07-06T13:15:57.429Z,24.00
2018-07-06T13:18:25.879Z,23.70
2018-07-06T13:20:54.917Z,23.80
2018-07-06T13:23:24.088Z,23.90
2018-07-06T13:25:53.259Z,24.00
2018-07-06T13:28:21.767Z,24.10
2018-07-06T13:30:50.321Z,24.20
2018-07-06T13:33:18.770Z,24.30
2018-07-06T13:35:47.607Z,24.50
2018-07-06T13:38:17.036Z,24.80
2018-07-06T13:40:45.621Z,25.10
2018-07-06T13:43:14.532Z,25.20
2018-07-06T13:45:43.127Z,25.20
2018-07-06T13:48:12.752Z,25.00
2018-07-06T13:50:41.302Z,24.60
2018-07-06T13:53:10.761Z,24.60
2018-07-06T13:55:40.020Z,24.20
2018-07-06T13:58:08.485Z,24.20
2018-07-06T14:00:37.740Z,24.30
2018-07-06T14:03:06.162Z,24.40
2018-07-06T14:05:34.674Z,24.20
2018-07-06T14:08:03.425Z,24.10
2018-07-06T14:10:31.971Z,24.00
2018-07-06T14:13:00.593Z,24.10
2018-07-06T14:15:29.199Z,24.10
2018-07-06T14:17:57.780Z,24.20
2018-07-06T14:20:27.590Z,23.90
2018-07-06T14:22:56.072Z,23.80
2018-07-06T14:25:24.969Z,23.90
2018-07-06T14:27:54.256Z,24.10
2018-07-06T14:30:22.839Z,24.40
2018-07-06T14:32:51.630Z,24.50
2018-07-06T14:35:20.073Z,24.60
2018-07-06T14:37:48.535Z,24.50
2018-07-06T14:40:17.444Z,24.50
2018-07-06T14:42:46.173Z,24.80
2018-07-06T14:45:14.638Z,24.90
2018-07-06T14:47:43.342Z,24.70
2018-07-06T14:50:12.117Z,24.80
2018-07-06T14:52:41.301Z,24.90
2018-07-06T14:55:09.669Z,24.80
2018-07-06T14:57:38.140Z,24.90
2018-07-06T15:00:07.672Z,24.90
2018-07-06T15:02:36.043Z,24.80
2018-07-06T15:05:04.632Z,24.50
2018-07-06T15:07:33.164Z,24.40
2018-07-06T15:10:01.642Z,24.40
2018-07-06T15:12:30.269Z,24.10
2018-07-06T15:14:58.679Z,24.00
2018-07-06T15:17:27.054Z,24.10
2018-07-06T15:19:57.039Z,24.20
2018-07-06T15:22:25.563Z,24.10
2018-07-06T15:24:54.019Z,24.20
2018-07-06T15:27:23.863Z,23.80
2018-07-06T15:29:52.598Z,24.00
2018-07-06T15:34:49.018Z,24.10
2018-07-06T15:37:18.018Z,24.30
2018-07-06T15:39:47.979Z,24.30
2018-07-06T15:42:16.479Z,24.20
2018-07-06T15:44:45.002Z,24.00
2018-07-06T15:47:14.507Z,24.10
2018-07-06T15:49:43.542Z,24.10
2018-07-06T15:52:12.171Z,24.00
2018-07-06T15:54:40.767Z,24.20
2018-07-06T15:57:09.188Z,24.40
2018-07-06T15:59:38.021Z,24.60
2018-07-06T16:02:06.454Z,24.90
2018-07-06T16:04:34.941Z,24.80
2018-07-06T16:07:03.371Z,25.00
2018-07-06T16:09:32.574Z,25.20
2018-07-06T16:12:01.107Z,25.40
2018-07-06T16:14:29.631Z,25.60
2018-07-06T16:16:58.141Z,25.70
2018-07-06T16:19:26.556Z,25.80
2018-07-06T16:21:54.980Z,25.70
2018-07-06T16:24:23.361Z,25.80
2018-07-06T16:26:52.959Z,25.80
2018-07-06T16:29:21.463Z,25.80
2018-07-06T16:31:49.857Z,25.60
2018-07-06T16:34:18.764Z,25.70
2018-07-06T16:36:47.312Z,25.50
2018-07-06T16:39:15.843Z,25.50
2018-07-06T16:41:44.286Z,25.20
2018-07-06T16:44:12.815Z,25.00
2018-07-06T16:46:41.250Z,24.90
2018-07-06T16:49:09.780Z,24.80
2018-07-06T16:54:06.105Z,25.00
2018-07-06T16:56:36.200Z,25.10
2018-07-06T16:59:04.716Z,25.10
2018-07-06T17:01:34.157Z,25.00
2018-07-06T17:04:02.589Z,25.20
2018-07-06T17:06:30.962Z,25.00
2018-07-06T17:08:59.971Z,25.00
2018-07-06T17:11:28.380Z,25.10
2018-07-06T17:13:56.762Z,25.30
2018-07-06T17:16:25.612Z,25.00
2018-07-06T17:18:54.022Z,25.00
2018-07-06T17:21:22.773Z,24.80
2018-07-06T17:23:51.637Z,24.80
2018-07-06T17:26:20.116Z,24.90
2018-07-06T17:28:48.547Z,24.90
2018-07-06T17:31:17.016Z,24.70
2018-07-06T17:33:45.535Z,24.80
2018-07-06T17:36:14.155Z,24.60
2018-07-06T17:38:42.722Z,24.40
2018-07-06T17:41:11.248Z,24.30
2018-07-06T17:43:39.643Z,24.30
2018-07-06T17:46:08.124Z,24.30
2018-07-06T17:48:36.641Z,24.30
2018-07-06T17:51:05.212Z,24.20
2018-07-06T17:53:33.610Z,24.20
2018-07-06T17:56:02.191Z,24.10
2018-07-06T17:58:30.719Z,23.90
2018-07-06T18:00:59.957Z,23.70
2018-07-06T18:03:28.911Z,23.80
2018-07-06T18:05:57.491Z,23.90
2018-07-06T18:08:26.097Z,23.90
2018-07-06T18:10:54.589Z,23.90
2018-07-06T18:13:24.038Z,23.70
2018-07-06T18:15:53.103Z,23.90
2018-07-06T18:18:22.151Z,23.90
2018-07-06T18:20:51.060Z,23.90
2018-07-06T18:23:19.590Z,23.90
2018-07-06T18:25:48.136Z,24.00
2018-07-06T18:28:16.539Z,23.90
2018-07-06T18:30:45.313Z,23.90
2018-07-06T18:33:13.838Z,23.90
2018-07-06T18:35:42.359Z,23.70
2018-07-06T18:38:10.816Z,23.50
2018-07-06T18:40:39.232Z,23.40
2018-07-06T18:43:07.630Z,23.30
2018-07-06T18:45:36.038Z,23.30
2018-07-06T18:48:04.770Z,23.20
2018-07-06T18:50:33.645Z,23.10
2018-07-06T18:53:02.366Z,23.10
2018-07-06T18:55:31.605Z,23.00
2018-07-06T18:58:00.113Z,22.90
2018-07-06T19:00:29.182Z,22.80
2018-07-06T19:02:57.538Z,22.70
2018-07-06T19:05:26.731Z,22.70
2018-07-06T19:07:55.700Z,22.70
2018-07-06T19:10:24.961Z,22.60
2018-07-06T19:12:53.416Z,22.60
2018-07-06T19:15:22.543Z,22.50
2018-07-06T19:17:50.916Z,22.40
2018-07-06T19:20:20.190Z,22.30
2018-07-06T19:22:49.218Z,22.20
2018-07-06T19:25:18.352Z,22.00
2018-07-06T19:27:46.828Z,21.90
2018-07-06T19:30:15.245Z,21.80
2018-07-06T19:32:44.440Z,21.70
2018-07-06T19:35:13.120Z,21.50
2018-07-06T19:37:42.320Z,21.40
2018-07-06T19:40:10.749Z,21.30
2018-07-06T19:42:39.261Z,21.20
2018-07-06T19:45:07.859Z,21.10
2018-07-06T19:47:36.322Z,20.80
2018-07-06T19:50:05.356Z,20.60
2018-07-06T19:52:34.006Z,20.60
2018-07-06T19:55:02.514Z,20.40
2018-07-06T19:57:31.694Z,20.30
2018-07-06T20:00:00.125Z,20.10
2018-07-06T20:02:28.560Z,20.10
2018-07-06T20:04:57.430Z,20.00
2018-07-06T20:07:26.588Z,19.90
2018-07-06T20:09:56.224Z,19.70
2018-07-06T20:12:24.820Z,19.70
2018-07-06T20:14:53.930Z,19.70
2018-07-06T20:17:22.455Z,19.60
2018-07-06T20:19:51.113Z,19.60
2018-07-06T20:22:19.630Z,19.60
2018-07-06T20:24:48.782Z,19.60
2018-07-06T20:27:17.448Z,19.60
2018-07-06T20:29:46.070Z,19.50
2018-07-06T20:32:15.187Z,19.50
2018-07-06T20:34:44.473Z,19.40
2018-07-06T20:37:12.922Z,19.40
2018-07-06T20:39:41.567Z,19.30
2018-07-06T20:42:10.158Z,19.30
2018-07-06T20:44:39.124Z,19.30
2018-07-06T20:47:07.596Z,19.20
2018-07-06T20:49:36.430Z,19.20
2018-07-06T20:52:04.889Z,19.10
2018-07-06T20:54:33.483Z,18.90
2018-07-06T20:57:03.004Z,18.80
2018-07-06T20:59:32.672Z,18.70
2018-07-06T21:02:01.254Z,18.70
2018-07-06T21:04:29.633Z,18.60
2018-07-06T21:06:59.113Z,18.40
2018-07-06T21:09:27.652Z,18.30
2018-07-06T21:11:56.205Z,18.20
2018-07-06T21:14:24.696Z,18.00
2018-07-06T21:16:54.201Z,17.90
2018-07-06T21:19:22.766Z,17.70
2018-07-06T21:21:51.420Z,17.70
2018-07-06T21:24:19.852Z,17.70
2018-07-06T21:26:48.299Z,17.60
2018-07-06T21:29:17.157Z,17.50
2018-07-06T21:31:46.054Z,17.50
2018-07-06T21:36:43.305Z,17.30
2018-07-06T21:39:12.281Z,17.30
2018-07-06T21:41:40.873Z,17.30
2018-07-06T21:44:09.785Z,17.20
2018-07-06T21:46:38.276Z,17.10
2018-07-06T21:49:06.709Z,17.00
2018-07-06T21:51:35.126Z,16.90
2018-07-06T21:54:04.076Z,16.90
2018-07-06T21:56:32.540Z,16.90
2018-07-06T21:59:01.101Z,16.90
2018-07-06T22:01:30.116Z,16.80
2018-07-06T22:03:58.644Z,16.80
2018-07-06T22:06:29.289Z,16.70
2018-07-06T22:09:00.151Z,16.70
2018-07-06T22:11:28.670Z,16.80
2018-07-06T22:13:57.872Z,16.70
2018-07-06T22:16:26.476Z,16.60
2018-07-06T22:18:55.051Z,16.70
2018-07-06T22:21:24.593Z,16.60
2018-07-06T22:23:53.473Z,16.60
2018-07-06T22:26:22.019Z,16.60
2018-07-06T22:28:50.679Z,16.60
2018-07-06T22:31:19.030Z,16.50
2018-07-06T22:33:47.600Z,16.50
2018-07-06T22:36:16.082Z,16.50
2018-07-06T22:38:44.935Z,16.50
2018-07-06T22:41:13.481Z,16.40
2018-07-06T22:46:10.739Z,16.40
2018-07-06T22:48:39.311Z,16.40
2018-07-06T22:51:08.993Z,16.40
2018-07-06T22:53:37.589Z,16.30
2018-07-06T22:56:06.304Z,16.20
2018-07-06T22:58:34.828Z,16.20
2018-07-06T23:01:03.301Z,16.20
2018-07-06T23:03:31.740Z,16.10
2018-07-06T23:06:00.197Z,16.10
2018-07-06T23:08:28.693Z,16.20
2018-07-06T23:10:57.152Z,16.20
2018-07-06T23:13:25.657Z,16.10
2018-07-06T23:15:54.164Z,16.00
2018-07-06T23:18:22.636Z,15.90
2018-07-06T23:20:51.252Z,15.90
2018-07-06T23:23:20.488Z,15.90
2018-07-06T23:25:49.700Z,16.00
2018-07-06T23:28:19.021Z,16.00
2018-07-06T23:30:48.028Z,16.10
2018-07-06T23:33:16.359Z,16.00
2018-07-06T23:35:45.708Z,16.10
2018-07-06T23:38:14.393Z,15.90
2018-07-06T23:40:42.724Z,15.90
2018-07-06T23:43:11.733Z,15.90
2018-07-06T23:45:40.300Z,15.90
2018-07-06T23:48:09.235Z,15.80
2018-07-06T23:50:37.651Z,15.70
2018-07-06T23:53:06.466Z,15.80
2018-07-06T23:55:34.951Z,15.90
2018-07-06T23:58:03.513Z,16.10
